Wien — DB8145 — position and weather

sailwx.info

Track history (hours):
 
Tides and Currents Weather Stations Pressure Air Temp Water Temp Dewpoint Dewpoint Depression Visibility Wind Speed Wind Dir Waves Ship Positions

Wien

Last reported at 2018-Feb-19 12:13 UTC. Time now 2018-Feb-20 05:27 UTC.
Position N 45°16' E 019°11'.

Length 193 m; draft 0.3 m.

Type: Ship. MMSI: 211644170.

Date/timePositionNaut miles runAvg speedWind from/ knotsBaromVisibWave heightAir tempDewpointWater temp
2018-Feb-19 12:13N 45°16' E 019°11'1 6.8
2018-Feb-19 12:01N 45°17' E 019°09'3 5.8
2018-Feb-19 11:30N 45°19' E 019°06'3 5.7
2018-Feb-19 11:00N 45°21' E 019°03'3 6.6
2018-Feb-19 10:31N 45°22' E 018°59'3 5.6
2018-Feb-19 10:01N 45°24' E 019°01'3 5.7
2018-Feb-19 09:30N 45°27' E 018°59'6 3.5
2018-Feb-19 07:50N 45°32' E 019°03'2 6.2
2018-Feb-19 07:31N 45°33' E 019°01'3 6.3
2018-Feb-19 07:00N 45°32' E 018°57'3 6.3
2018-Feb-19 06:30N 45°34' E 018°53'3 6.0
2018-Feb-19 06:01N 45°37' E 018°54'3 6.1
2018-Feb-19 05:31N 45°39' E 018°57'2 4.8
2018-Feb-19 05:01N 45°41' E 018°56'3 6.3
2018-Feb-19 04:31N 45°44' E 018°54'3 6.2
2018-Feb-19 04:01N 45°47' E 018°52'3 5.6
2018-Feb-19 03:31N 45°50' E 018°51'0 0.9
2018-Feb-19 03:00N 45°50' E 018°51'0 0.0
2018-Feb-19 02:29N 45°50' E 018°51'0 0.0
2018-Feb-19 02:00N 45°50' E 018°51'0 0.0
2018-Feb-19 01:30N 45°50' E 018°51'0 0.0
2018-Feb-19 01:00N 45°50' E 018°51'0 0.0
2018-Feb-19 00:30N 45°50' E 018°51'0 0.0
2018-Feb-19 00:01N 45°50' E 018°51'0 0.0
2018-Feb-18 23:30N 45°50' E 018°51'0 0.0
2018-Feb-18 23:00N 45°50' E 018°51'0 0.0
2018-Feb-18 22:30N 45°50' E 018°51'0 0.0
2018-Feb-18 22:00N 45°50' E 018°51'0 0.0
2018-Feb-18 21:31N 45°50' E 018°51'0 0.0
2018-Feb-18 21:00N 45°50' E 018°51'0 0.0
2018-Feb-18 20:29N 45°50' E 018°51'0 0.0
2018-Feb-18 20:01N 45°50' E 018°51'0 0.1
2018-Feb-18 19:31N 45°50' E 018°51'2 4.0
2018-Feb-18 19:01N 45°52' E 018°50'92 3.5
2018-Feb-17 16:38N 47°24' E 019°02'1 8.6
2018-Feb-17 16:29N 47°25' E 019°03'3 6.4
2018-Feb-17 16:00N 47°28' E 019°04'4 7.8
2018-Feb-17 15:30N 47°32' E 019°03'56 5.5
2018-Feb-17 05:28N 47°45' E 017°43'4 9.3
2018-Feb-17 05:00N 47°48' E 017°38'5 8.1
2018-Feb-17 04:25N 47°52' E 017°33'1 3.1
2018-Feb-17 03:59N 47°53' E 017°32'0 0.2
2018-Feb-17 03:30N 47°53' E 017°32'2 4.3
2018-Feb-17 03:00N 47°55' E 017°30'3 6.9
2018-Feb-17 02:30N 47°57' E 017°26'3 6.9
2018-Feb-17 02:00N 47°59' E 017°22'3 6.4
2018-Feb-17 01:30N 48°00' E 017°18'3 6.7
2018-Feb-17 01:00N 48°02' E 017°14'4 7.2
2018-Feb-17 00:30N 48°04' E 017°10'4 7.7
2018-Feb-17 00:00N 48°08' E 017°08'5 9.3
2018-Feb-16 23:30N 48°09' E 017°01'4 7.2
2018-Feb-16 22:57N 48°09' E 016°55'18 7.1
2018-Feb-16 20:25N 48°11' E 016°29'3 3.1
2018-Feb-16 19:17N 48°13' E 016°25'0 0.0
2018-Feb-16 19:00N 48°13' E 016°25'0 0.0
2018-Feb-16 18:28N 48°13' E 016°25'0 0.0
2018-Feb-16 18:00N 48°13' E 016°25'0 0.0
2018-Feb-16 17:28N 48°13' E 016°25'0 0.0
2018-Feb-16 17:00N 48°13' E 016°25'0 0.0
2018-Feb-16 16:30N 48°13' E 016°25'  
2018-Feb-13 19:30N 48°11' E 016°28'1 1.3
2018-Feb-13 18:30N 48°10' E 016°29'11 2.0
2018-Feb-13 12:54N 48°08' E 016°45'1 1.5
2018-Feb-13 12:18N 48°07' E 016°46'1 2.0
2018-Feb-13 11:59N 48°07' E 016°47'4 1.9
2018-Feb-13 09:52N 48°08' E 016°53'1 1.6
2018-Feb-13 09:30N 48°08' E 016°54'1 2.0
2018-Feb-13 09:00N 48°09' E 016°55'1 1.7
2018-Feb-13 08:30N 48°09' E 016°56'1 2.2
2018-Feb-13 08:00N 48°10' E 016°57'1 1.4
2018-Feb-13 07:29N 48°10' E 016°58'1 2.0
2018-Feb-13 07:00N 48°10' E 016°59'1 1.5
2018-Feb-13 06:30N 48°10' E 017°00'1 2.1
2018-Feb-13 06:00N 48°09' E 017°01'1 2.1
2018-Feb-13 05:30N 48°08' E 017°03'1 2.6
2018-Feb-13 05:01N 48°09' E 017°05'1 2.4
2018-Feb-13 04:30N 48°08' E 017°06'2 3.2
2018-Feb-13 04:00N 48°08' E 017°09'2 3.3
2018-Feb-13 03:30N 48°06' E 017°08'2 4.5
2018-Feb-13 03:00N 48°04' E 017°10'3 5.3
2018-Feb-13 02:30N 48°03' E 017°13'3 5.8
2018-Feb-13 02:00N 48°01' E 017°16'3 6.0
2018-Feb-13 01:31N 47°60' E 017°21'3 6.2
2018-Feb-13 01:00N 47°58' E 017°24'3 6.1
2018-Feb-13 00:30N 47°56' E 017°28'2 5.0
2018-Feb-13 00:01N 47°54' E 017°30'2 3.8
2018-Feb-12 23:30N 47°53' E 017°32'0 0.2
2018-Feb-12 23:00N 47°53' E 017°33'2 3.2
2018-Feb-12 22:30N 47°51' E 017°34'3 6.3
2018-Feb-12 21:59N 47°49' E 017°37'3 4.4
2018-Feb-12 21:19N 47°47' E 017°40'58 2.5
2018-Feb-11 22:07N 47°36' E 019°06'1 4.2
2018-Feb-11 21:59N 47°36' E 019°05'2 3.7
2018-Feb-11 21:28N 47°34' E 019°04'2 4.3
2018-Feb-11 21:00N 47°32' E 019°03'2 4.1
2018-Feb-11 20:28N 47°30' E 019°03'2 4.2
2018-Feb-11 20:01N 47°28' E 019°04'2 3.5
2018-Feb-11 19:30N 47°27' E 019°03'2 3.4
2018-Feb-11 19:00N 47°25' E 019°03'2 3.4
2018-Feb-11 18:31N 47°24' E 019°02'3 2.2
2018-Feb-11 17:15N 47°23' E 018°58'3 9.5
2018-Feb-11 16:59N 47°24' E 019°01'3 7.0
2018-Feb-11 16:30N 47°27' E 019°03'0 0.4
2018-Feb-11 15:58N 47°27' E 019°03'0 0.1
2018-Feb-11 15:29N 47°27' E 019°03'0 0.2
2018-Feb-11 15:00N 47°26' E 019°03'0 0.6
2018-Feb-11 14:30N 47°27' E 019°03'2 3.7
2018-Feb-11 14:01N 47°25' E 019°03'2 4.2
2018-Feb-11 13:28N 47°23' E 019°00'2 3.3
2018-Feb-11 12:56N 47°23' E 018°58'1 1.0
2018-Feb-11 12:21N 47°23' E 018°59'1 1.6
2018-Feb-11 11:58N 47°23' E 018°58'1 0.3
2018-Feb-11 09:52N 47°22' E 018°57'1 3.4
2018-Feb-11 09:26N 47°21' E 018°57'81 2.3
2018-Feb-09 22:02N 46°01' E 018°41'12 1.6
2018-Feb-09 14:30N 45°51' E 018°51'  
Track history (hours):
 
Tides and Currents Weather Stations Pressure Air Temp Water Temp Dewpoint Dewpoint Depression Visibility Wind Speed Wind Dir Waves Ship Positions

Wien

Last reported at 2018-Feb-19 12:13 UTC. Time now 2018-Feb-20 05:27 UTC.
Position N 45°16' E 019°11'.

Length 193 m; draft 0.3 m.

Type: Ship. MMSI: 211644170.

Date/timePositionNaut miles runAvg speedWind from/ knotsBaromVisibWave heightAir tempDewpointWater temp
2018-Feb-19 12:13N 45°16' E 019°11'1 6.8
2018-Feb-19 12:01N 45°17' E 019°09'3 5.8
2018-Feb-19 11:30N 45°19' E 019°06'3 5.7
2018-Feb-19 11:00N 45°21' E 019°03'3 6.6
2018-Feb-19 10:31N 45°22' E 018°59'3 5.6
2018-Feb-19 10:01N 45°24' E 019°01'3 5.7
2018-Feb-19 09:30N 45°27' E 018°59'6 3.5
2018-Feb-19 07:50N 45°32' E 019°03'2 6.2
2018-Feb-19 07:31N 45°33' E 019°01'3 6.3
2018-Feb-19 07:00N 45°32' E 018°57'3 6.3
2018-Feb-19 06:30N 45°34' E 018°53'3 6.0
2018-Feb-19 06:01N 45°37' E 018°54'3 6.1
2018-Feb-19 05:31N 45°39' E 018°57'2 4.8
2018-Feb-19 05:01N 45°41' E 018°56'3 6.3
2018-Feb-19 04:31N 45°44' E 018°54'3 6.2
2018-Feb-19 04:01N 45°47' E 018°52'3 5.6
2018-Feb-19 03:31N 45°50' E 018°51'0 0.9
2018-Feb-19 03:00N 45°50' E 018°51'0 0.0
2018-Feb-19 02:29N 45°50' E 018°51'0 0.0
2018-Feb-19 02:00N 45°50' E 018°51'0 0.0
2018-Feb-19 01:30N 45°50' E 018°51'0 0.0
2018-Feb-19 01:00N 45°50' E 018°51'0 0.0
2018-Feb-19 00:30N 45°50' E 018°51'0 0.0
2018-Feb-19 00:01N 45°50' E 018°51'0 0.0
2018-Feb-18 23:30N 45°50' E 018°51'0 0.0
2018-Feb-18 23:00N 45°50' E 018°51'0 0.0
2018-Feb-18 22:30N 45°50' E 018°51'0 0.0
2018-Feb-18 22:00N 45°50' E 018°51'0 0.0
2018-Feb-18 21:31N 45°50' E 018°51'0 0.0
2018-Feb-18 21:00N 45°50' E 018°51'0 0.0
2018-Feb-18 20:29N 45°50' E 018°51'0 0.0
2018-Feb-18 20:01N 45°50' E 018°51'0 0.1
2018-Feb-18 19:31N 45°50' E 018°51'2 4.0
2018-Feb-18 19:01N 45°52' E 018°50'92 3.5
2018-Feb-17 16:38N 47°24' E 019°02'1 8.6
2018-Feb-17 16:29N 47°25' E 019°03'3 6.4
2018-Feb-17 16:00N 47°28' E 019°04'4 7.8
2018-Feb-17 15:30N 47°32' E 019°03'56 5.5
2018-Feb-17 05:28N 47°45' E 017°43'4 9.3
2018-Feb-17 05:00N 47°48' E 017°38'5 8.1
2018-Feb-17 04:25N 47°52' E 017°33'1 3.1
2018-Feb-17 03:59N 47°53' E 017°32'0 0.2
2018-Feb-17 03:30N 47°53' E 017°32'2 4.3
2018-Feb-17 03:00N 47°55' E 017°30'3 6.9
2018-Feb-17 02:30N 47°57' E 017°26'3 6.9
2018-Feb-17 02:00N 47°59' E 017°22'3 6.4
2018-Feb-17 01:30N 48°00' E 017°18'3 6.7
2018-Feb-17 01:00N 48°02' E 017°14'4 7.2
2018-Feb-17 00:30N 48°04' E 017°10'4 7.7
2018-Feb-17 00:00N 48°08' E 017°08'5 9.3
2018-Feb-16 23:30N 48°09' E 017°01'4 7.2
2018-Feb-16 22:57N 48°09' E 016°55'18 7.1
2018-Feb-16 20:25N 48°11' E 016°29'3 3.1
2018-Feb-16 19:17N 48°13' E 016°25'0 0.0
2018-Feb-16 19:00N 48°13' E 016°25'0 0.0
2018-Feb-16 18:28N 48°13' E 016°25'0 0.0
2018-Feb-16 18:00N 48°13' E 016°25'0 0.0
2018-Feb-16 17:28N 48°13' E 016°25'0 0.0
2018-Feb-16 17:00N 48°13' E 016°25'0 0.0
2018-Feb-16 16:30N 48°13' E 016°25'  
2018-Feb-13 19:30N 48°11' E 016°28'1 1.3
2018-Feb-13 18:30N 48°10' E 016°29'11 2.0
2018-Feb-13 12:54N 48°08' E 016°45'1 1.5
2018-Feb-13 12:18N 48°07' E 016°46'1 2.0
2018-Feb-13 11:59N 48°07' E 016°47'4 1.9
2018-Feb-13 09:52N 48°08' E 016°53'1 1.6
2018-Feb-13 09:30N 48°08' E 016°54'1 2.0
2018-Feb-13 09:00N 48°09' E 016°55'1 1.7
2018-Feb-13 08:30N 48°09' E 016°56'1 2.2
2018-Feb-13 08:00N 48°10' E 016°57'1 1.4
2018-Feb-13 07:29N 48°10' E 016°58'1 2.0
2018-Feb-13 07:00N 48°10' E 016°59'1 1.5
2018-Feb-13 06:30N 48°10' E 017°00'1 2.1
2018-Feb-13 06:00N 48°09' E 017°01'1 2.1
2018-Feb-13 05:30N 48°08' E 017°03'1 2.6
2018-Feb-13 05:01N 48°09' E 017°05'1 2.4
2018-Feb-13 04:30N 48°08' E 017°06'2 3.2
2018-Feb-13 04:00N 48°08' E 017°09'2 3.3
2018-Feb-13 03:30N 48°06' E 017°08'2 4.5
2018-Feb-13 03:00N 48°04' E 017°10'3 5.3
2018-Feb-13 02:30N 48°03' E 017°13'3 5.8
2018-Feb-13 02:00N 48°01' E 017°16'3 6.0
2018-Feb-13 01:31N 47°60' E 017°21'3 6.2
2018-Feb-13 01:00N 47°58' E 017°24'3 6.1
2018-Feb-13 00:30N 47°56' E 017°28'2 5.0
2018-Feb-13 00:01N 47°54' E 017°30'2 3.8
2018-Feb-12 23:30N 47°53' E 017°32'0 0.2
2018-Feb-12 23:00N 47°53' E 017°33'2 3.2
2018-Feb-12 22:30N 47°51' E 017°34'3 6.3
2018-Feb-12 21:59N 47°49' E 017°37'3 4.4
2018-Feb-12 21:19N 47°47' E 017°40'58 2.5
2018-Feb-11 22:07N 47°36' E 019°06'1 4.2
2018-Feb-11 21:59N 47°36' E 019°05'2 3.7
2018-Feb-11 21:28N 47°34' E 019°04'2 4.3
2018-Feb-11 21:00N 47°32' E 019°03'2 4.1
2018-Feb-11 20:28N 47°30' E 019°03'2 4.2
2018-Feb-11 20:01N 47°28' E 019°04'2 3.5
2018-Feb-11 19:30N 47°27' E 019°03'2 3.4
2018-Feb-11 19:00N 47°25' E 019°03'2 3.4
2018-Feb-11 18:31N 47°24' E 019°02'3 2.2
2018-Feb-11 17:15N 47°23' E 018°58'3 9.5
2018-Feb-11 16:59N 47°24' E 019°01'3 7.0
2018-Feb-11 16:30N 47°27' E 019°03'0 0.4
2018-Feb-11 15:58N 47°27' E 019°03'0 0.1
2018-Feb-11 15:29N 47°27' E 019°03'0 0.2
2018-Feb-11 15:00N 47°26' E 019°03'0 0.6
2018-Feb-11 14:30N 47°27' E 019°03'2 3.7
2018-Feb-11 14:01N 47°25' E 019°03'2 4.2
2018-Feb-11 13:28N 47°23' E 019°00'2 3.3
2018-Feb-11 12:56N 47°23' E 018°58'1 1.0
2018-Feb-11 12:21N 47°23' E 018°59'1 1.6
2018-Feb-11 11:58N 47°23' E 018°58'1 0.3
2018-Feb-11 09:52N 47°22' E 018°57'1 3.4
2018-Feb-11 09:26N 47°21' E 018°57'81 2.3
2018-Feb-09 22:02N 46°01' E 018°41'12 1.6
2018-Feb-09 14:30N 45°51' E 018°51'  

Dump ship's entire track history